createdAt,value
2019-06-07T00:00:39.376Z,90.80
2019-06-07T00:03:35.940Z,90.80
2019-06-07T00:06:40.327Z,90.70
2019-06-07T00:09:44.944Z,90.70
2019-06-07T00:12:49.332Z,90.70
2019-06-07T00:15:53.762Z,90.70
2019-06-07T00:18:58.019Z,90.80
2019-06-07T00:22:30.097Z,90.80
2019-06-07T00:25:12.181Z,90.80
2019-06-07T00:28:17.363Z,91.00
2019-06-07T00:31:24.050Z,91.00
2019-06-07T00:34:26.823Z,91.10
2019-06-07T00:37:31.118Z,91.00
2019-06-07T00:40:35.511Z,91.10
2019-06-07T00:43:39.878Z,91.10
2019-06-07T00:46:44.187Z,91.10
2019-06-07T00:49:48.544Z,91.10
2019-06-07T00:53:14.631Z,91.20
2019-06-07T00:55:58.844Z,91.20
2019-06-07T00:59:11.179Z,91.30
2019-06-07T01:02:09.177Z,91.30
2019-06-07T01:05:15.941Z,91.40
2019-06-07T01:08:22.780Z,91.40
2019-06-07T01:11:26.241Z,91.50
2019-06-07T01:14:30.691Z,91.60
2019-06-07T01:17:49.716Z,91.70
2019-06-07T01:20:41.023Z,91.80
2019-06-07T01:24:08.873Z,91.80
2019-06-07T01:26:51.463Z,91.70
2019-06-07T01:29:55.737Z,91.70
2019-06-07T01:33:00.198Z,91.80
2019-06-07T01:36:04.601Z,91.90
2019-06-07T01:39:08.874Z,92.00
2019-06-07T01:42:13.291Z,91.80
2019-06-07T01:45:19.514Z,91.90
2019-06-07T01:48:29.545Z,92.00
2019-06-07T01:51:30.775Z,92.10
2019-06-07T01:54:56.615Z,92.60
2019-06-07T01:57:48.061Z,92.00
2019-06-07T02:00:46.761Z,92.20
2019-06-07T02:03:50.675Z,92.30
2019-06-07T02:06:54.807Z,92.40
2019-06-07T02:09:58.664Z,92.50
2019-06-07T02:13:02.812Z,92.60
2019-06-07T02:16:07.094Z,92.50
2019-06-07T02:19:11.118Z,92.60
2019-06-07T02:22:15.094Z,92.60
2019-06-07T02:28:38.330Z,92.60
2019-06-07T02:31:36.991Z,92.70
2019-06-07T02:34:39.328Z,92.60
2019-06-07T02:37:41.358Z,92.60
2019-06-07T02:40:45.700Z,92.80
2019-06-07T02:43:50.064Z,92.70
2019-06-07T02:46:54.418Z,92.80
2019-06-07T02:49:58.805Z,92.80
2019-06-07T02:53:03.176Z,92.70
2019-06-07T02:59:13.565Z,92.80
2019-06-07T03:02:18.022Z,93.00
2019-06-07T03:05:22.357Z,92.80
2019-06-07T03:08:30.950Z,92.90
2019-06-07T03:11:38.706Z,92.80
2019-06-07T03:14:43.807Z,92.80
2019-06-07T03:18:00.474Z,92.80
2019-06-07T03:21:06.029Z,92.90
2019-06-07T03:24:10.350Z,92.80
2019-06-07T03:27:36.217Z,92.80
2019-06-07T03:30:57.134Z,92.80
2019-06-07T03:33:29.372Z,92.90
2019-06-07T03:36:35.338Z,93.00
2019-06-07T03:39:41.183Z,93.10
2019-06-07T03:42:45.765Z,93.00
2019-06-07T03:45:50.137Z,92.90
2019-06-07T03:48:54.443Z,92.90
2019-06-07T03:51:58.909Z,93.00
2019-06-07T03:55:04.407Z,93.30
2019-06-07T04:01:14.739Z,92.80
2019-06-07T04:04:19.148Z,92.90
2019-06-07T04:07:23.519Z,93.00
2019-06-07T04:10:48.529Z,93.10
2019-06-07T04:13:36.743Z,93.20
2019-06-07T04:16:44.032Z,93.30
2019-06-07T04:19:46.043Z,93.50
2019-06-07T04:22:50.391Z,93.50
2019-06-07T04:25:54.876Z,93.60
2019-06-07T04:32:05.989Z,93.70
2019-06-07T04:35:10.407Z,93.90
2019-06-07T04:38:15.311Z,93.90
2019-06-07T04:41:22.611Z,94.10
2019-06-07T04:44:26.955Z,94.10
2019-06-07T04:47:33.764Z,94.10
2019-06-07T04:50:43.480Z,94.20
2019-06-07T04:53:44.715Z,94.20
2019-06-07T04:56:49.032Z,94.30
2019-06-07T05:00:11.760Z,94.30
2019-06-07T05:02:59.711Z,94.30
2019-06-07T05:06:04.083Z,94.10
2019-06-07T05:09:08.481Z,94.10
2019-06-07T05:12:12.888Z,94.10
2019-06-07T05:15:17.622Z,94.00
2019-06-07T05:18:22.046Z,93.90
2019-06-07T05:21:46.413Z,93.80
2019-06-07T05:24:35.597Z,93.70
2019-06-07T05:27:42.395Z,93.70
2019-06-07T05:31:03.423Z,93.50
2019-06-07T05:33:50.849Z,93.30
2019-06-07T05:37:11.037Z,93.30
2019-06-07T05:40:01.385Z,93.30
2019-06-07T05:43:06.143Z,93.40
2019-06-07T05:46:10.503Z,93.20
2019-06-07T05:49:14.963Z,93.10
2019-06-07T05:52:19.227Z,92.90
2019-06-07T05:55:23.597Z,92.90
2019-06-07T05:58:27.866Z,92.70
2019-06-07T06:01:57.406Z,92.70
2019-06-07T06:04:40.246Z,92.70
2019-06-07T06:07:49.569Z,92.60
2019-06-07T06:10:50.318Z,92.30
2019-06-07T06:14:06.769Z,92.20
2019-06-07T06:17:00.825Z,92.00
2019-06-07T06:20:05.859Z,91.80
2019-06-07T06:23:10.160Z,91.90
2019-06-07T06:26:14.483Z,91.70
2019-06-07T06:29:18.958Z,91.80
2019-06-07T06:32:42.177Z,91.50
2019-06-07T06:35:29.400Z,91.50
2019-06-07T06:38:33.834Z,91.50
2019-06-07T06:41:49.435Z,91.40
2019-06-07T06:44:46.415Z,91.40
2019-06-07T06:47:50.729Z,91.30
2019-06-07T06:50:55.207Z,91.20
2019-06-07T06:53:59.431Z,91.00
2019-06-07T06:57:19.194Z,91.00
2019-06-07T07:00:10.302Z,90.90
2019-06-07T07:06:26.424Z,90.60
2019-06-07T07:09:29.929Z,90.50
2019-06-07T07:12:34.395Z,90.40
2019-06-07T07:15:38.827Z,90.30
2019-06-07T07:18:44.281Z,90.30
2019-06-07T07:21:50.609Z,90.10
2019-06-07T07:24:57.844Z,90.10
2019-06-07T07:28:02.375Z,90.00
2019-06-07T07:31:06.765Z,89.80
2019-06-07T07:34:32.096Z,89.30
2019-06-07T07:37:18.689Z,89.00
2019-06-07T07:40:56.173Z,89.00
2019-06-07T07:43:29.138Z,88.70
2019-06-07T07:46:33.652Z,88.40
2019-06-07T07:49:40.374Z,88.00
2019-06-07T07:52:45.944Z,87.60
2019-06-07T07:55:54.949Z,87.40
2019-06-07T07:59:02.094Z,87.30
2019-06-07T08:02:03.216Z,87.10
2019-06-07T08:05:23.348Z,86.80
2019-06-07T08:08:14.292Z,87.00
2019-06-07T08:11:18.734Z,87.10
2019-06-07T08:14:23.083Z,86.60
2019-06-07T08:17:27.502Z,86.20
2019-06-07T08:20:31.925Z,86.00
2019-06-07T08:23:36.385Z,85.50
2019-06-07T08:26:40.845Z,85.20
2019-06-07T08:30:00.924Z,85.10
2019-06-07T08:32:55.134Z,85.30
2019-06-07T08:36:11.559Z,83.90
2019-06-07T08:39:07.570Z,83.50
2019-06-07T08:42:17.912Z,83.30
2019-06-07T08:45:20.640Z,82.90
2019-06-07T08:48:30.248Z,82.20
2019-06-07T08:51:31.114Z,82.10
2019-06-07T08:54:35.658Z,81.20
2019-06-07T08:57:40.097Z,80.90
2019-06-07T09:00:47.041Z,80.70
2019-06-07T09:03:52.078Z,80.40
2019-06-07T09:07:18.360Z,79.90
2019-06-07T09:10:09.419Z,80.30
2019-06-07T09:13:11.618Z,80.20
2019-06-07T09:16:15.109Z,80.30
2019-06-07T09:19:19.580Z,80.00
2019-06-07T09:22:23.946Z,80.00
2019-06-07T09:25:28.413Z,79.10
2019-06-07T09:28:33.448Z,80.10
2019-06-07T09:31:52.193Z,80.30
2019-06-07T09:34:44.297Z,80.70
2019-06-07T09:38:07.808Z,80.90
2019-06-07T09:40:54.723Z,80.60
2019-06-07T09:44:09.942Z,81.00
2019-06-07T09:47:22.237Z,80.90
2019-06-07T09:50:12.439Z,81.20
2019-06-07T09:53:22.808Z,80.80
2019-06-07T09:56:23.156Z,80.00
2019-06-07T09:59:28.274Z,79.60
2019-06-07T10:02:32.818Z,79.50
2019-06-07T10:05:37.326Z,79.30
2019-06-07T10:11:51.861Z,80.00
2019-06-07T10:14:58.597Z,79.10
2019-06-07T10:18:03.088Z,79.40
2019-06-07T10:21:08.343Z,79.20
2019-06-07T10:24:13.487Z,78.60
2019-06-07T10:27:18.224Z,78.20
2019-06-07T10:30:22.971Z,77.00
2019-06-07T10:33:27.378Z,72.80
2019-06-07T10:36:31.712Z,77.10
2019-06-07T10:39:48.097Z,75.70
2019-06-07T10:42:42.132Z,75.60
2019-06-07T10:45:46.617Z,75.90
2019-06-07T10:48:50.995Z,75.30
2019-06-07T10:51:55.433Z,75.10
2019-06-07T10:55:00.254Z,75.00
2019-06-07T10:58:04.896Z,74.10
2019-06-07T11:01:09.401Z,74.80
2019-06-07T11:04:13.946Z,73.20
2019-06-07T11:07:18.327Z,74.00
2019-06-07T11:10:23.203Z,73.80
2019-06-07T11:13:27.584Z,73.80
2019-06-07T11:16:32.003Z,73.10
2019-06-07T11:19:36.382Z,73.60
2019-06-07T11:22:40.785Z,73.00
2019-06-07T11:25:45.243Z,73.20
2019-06-07T11:28:49.607Z,72.90
2019-06-07T11:31:54.259Z,73.60
2019-06-07T11:34:58.834Z,72.00
2019-06-07T11:38:03.265Z,70.80
2019-06-07T11:41:07.676Z,70.30
2019-06-07T11:44:12.981Z,70.70
2019-06-07T11:47:18.440Z,70.90
2019-06-07T11:50:23.065Z,70.20
2019-06-07T11:53:27.589Z,70.00
2019-06-07T11:56:32.030Z,69.60
2019-06-07T11:59:36.479Z,68.70
2019-06-07T12:02:40.861Z,69.00
2019-06-07T12:05:45.339Z,68.50
2019-06-07T12:08:49.770Z,68.20
2019-06-07T12:11:54.689Z,66.70
2019-06-07T12:15:01.059Z,66.50
2019-06-07T12:18:05.830Z,66.40
2019-06-07T12:21:11.451Z,65.30
2019-06-07T12:24:16.248Z,64.90
2019-06-07T12:27:21.106Z,63.90
2019-06-07T12:30:27.974Z,62.10
2019-06-07T12:33:31.534Z,62.30
2019-06-07T12:36:38.979Z,61.50
2019-06-07T12:39:43.523Z,61.70
2019-06-07T12:42:47.975Z,60.60
2019-06-07T12:45:52.518Z,59.60
2019-06-07T12:48:57.022Z,60.00
2019-06-07T12:52:01.418Z,59.40
2019-06-07T12:55:06.989Z,59.40
2019-06-07T12:58:11.346Z,59.70
2019-06-07T13:01:15.984Z,59.00
2019-06-07T13:04:24.990Z,58.60
2019-06-07T13:07:29.954Z,59.30
2019-06-07T13:10:34.347Z,59.00
2019-06-07T13:13:38.804Z,59.50
2019-06-07T13:16:43.271Z,59.70
2019-06-07T13:19:47.704Z,59.60
2019-06-07T13:22:52.111Z,58.90
2019-06-07T13:25:56.568Z,59.40
2019-06-07T13:29:02.789Z,58.20
2019-06-07T13:32:07.298Z,58.50
2019-06-07T13:35:12.224Z,58.20
2019-06-07T13:38:26.335Z,58.40
2019-06-07T13:41:41.942Z,57.10
2019-06-07T13:44:36.880Z,57.30
2019-06-07T13:47:41.436Z,56.30
2019-06-07T13:50:45.984Z,56.20
2019-06-07T13:53:50.459Z,56.00
2019-06-07T13:57:01.937Z,56.40
2019-06-07T14:00:10.223Z,56.50
2019-06-07T14:03:08.543Z,56.10
2019-06-07T14:06:13.073Z,56.40
2019-06-07T14:09:19.228Z,55.50
2019-06-07T14:12:24.171Z,54.80
2019-06-07T14:15:31.438Z,54.20
2019-06-07T14:18:34.615Z,54.50
2019-06-07T14:21:39.033Z,55.40
2019-06-07T14:24:43.441Z,55.60
2019-06-07T14:27:47.949Z,55.80
2019-06-07T14:30:52.350Z,55.50
2019-06-07T14:33:56.773Z,56.60
2019-06-07T14:37:01.304Z,55.40
2019-06-07T14:40:07.893Z,55.20
2019-06-07T14:43:12.256Z,55.30
2019-06-07T14:46:17.976Z,54.80
2019-06-07T14:49:24.102Z,55.50
2019-06-07T14:52:28.759Z,55.50
2019-06-07T14:55:33.107Z,55.30
2019-06-07T14:58:42.794Z,55.30
2019-06-07T15:01:43.606Z,55.40
2019-06-07T15:04:48.674Z,54.80
2019-06-07T15:07:53.024Z,55.30
2019-06-07T15:10:57.472Z,55.50
2019-06-07T15:14:03.138Z,55.60
2019-06-07T15:17:09.161Z,55.80
2019-06-07T15:20:13.936Z,55.80
2019-06-07T15:23:18.400Z,56.40
2019-06-07T15:26:22.991Z,56.20
2019-06-07T15:29:27.534Z,56.10
2019-06-07T15:32:35.212Z,56.60
2019-06-07T15:35:40.506Z,56.50
2019-06-07T15:38:46.120Z,57.20
2019-06-07T15:41:50.628Z,56.50
2019-06-07T15:44:55.955Z,56.50
2019-06-07T15:48:00.725Z,56.50
2019-06-07T15:51:05.217Z,56.60
2019-06-07T15:54:09.751Z,57.80
2019-06-07T15:57:14.288Z,57.50
2019-06-07T16:00:20.975Z,57.20
2019-06-07T16:03:25.719Z,57.20
2019-06-07T16:06:31.913Z,57.90
2019-06-07T16:09:36.700Z,58.60
2019-06-07T16:12:57.632Z,58.80
2019-06-07T16:15:48.194Z,59.10
2019-06-07T16:18:52.645Z,59.10
2019-06-07T16:21:57.067Z,59.40
2019-06-07T16:25:01.613Z,59.70
2019-06-07T16:28:07.965Z,60.50
2019-06-07T16:31:12.248Z,61.10
2019-06-07T16:34:16.678Z,60.90
2019-06-07T16:37:21.104Z,61.20
2019-06-07T16:40:25.545Z,61.10
2019-06-07T16:43:30.114Z,60.90
2019-06-07T16:46:34.728Z,60.80
2019-06-07T16:49:39.222Z,61.50
2019-06-07T16:52:46.466Z,62.00
2019-06-07T16:55:51.106Z,62.00
2019-06-07T16:58:55.501Z,61.90
2019-06-07T17:01:59.974Z,62.00
2019-06-07T17:05:05.311Z,62.30
2019-06-07T17:08:09.811Z,62.50
2019-06-07T17:11:14.402Z,63.30
2019-06-07T17:14:18.875Z,64.70
2019-06-07T17:17:23.311Z,66.00
2019-06-07T17:20:27.877Z,66.20
2019-06-07T17:23:32.799Z,67.20
2019-06-07T17:26:37.377Z,68.10
2019-06-07T17:29:42.028Z,68.40
2019-06-07T17:32:54.929Z,68.90
2019-06-07T17:35:52.857Z,68.90
2019-06-07T17:38:57.464Z,69.30
2019-06-07T17:42:02.628Z,70.10
2019-06-07T17:45:08.669Z,70.90
2019-06-07T17:48:14.982Z,71.30
2019-06-07T17:51:19.567Z,70.50
2019-06-07T17:54:24.073Z,70.40
2019-06-07T17:57:28.665Z,70.60
2019-06-07T18:00:47.086Z,71.90
2019-06-07T18:03:52.969Z,71.70
2019-06-07T18:06:58.255Z,72.40
2019-06-07T18:10:03.756Z,73.00
2019-06-07T18:13:08.482Z,73.60
2019-06-07T18:16:13.260Z,75.10
2019-06-07T18:19:18.907Z,75.70
2019-06-07T18:22:23.672Z,76.50
2019-06-07T18:25:28.603Z,77.20
2019-06-07T18:28:33.129Z,79.00
2019-06-07T18:31:38.854Z,78.40
2019-06-07T18:34:43.395Z,77.70
2019-06-07T18:37:48.949Z,77.60
2019-06-07T18:40:57.249Z,77.90
2019-06-07T18:44:01.971Z,78.40
2019-06-07T18:47:06.797Z,78.70
2019-06-07T18:50:11.828Z,79.00
2019-06-07T18:53:16.566Z,79.30
2019-06-07T18:56:21.887Z,79.30
2019-06-07T18:59:26.953Z,79.60
2019-06-07T19:02:31.387Z,80.00
2019-06-07T19:05:36.483Z,80.40
2019-06-07T19:08:42.718Z,80.80
2019-06-07T19:11:49.111Z,81.20
2019-06-07T19:14:53.834Z,81.50
2019-06-07T19:17:58.317Z,81.90
2019-06-07T19:21:03.109Z,82.20
2019-06-07T19:24:08.650Z,82.50
2019-06-07T19:27:14.259Z,83.10
2019-06-07T19:30:23.853Z,83.40
2019-06-07T19:33:30.356Z,83.90
2019-06-07T19:36:47.960Z,84.10
2019-06-07T19:39:42.170Z,85.50
2019-06-07T19:42:46.664Z,84.80
2019-06-07T19:45:52.016Z,85.10
2019-06-07T19:48:58.633Z,85.50
2019-06-07T19:52:03.269Z,85.80
2019-06-07T19:55:09.867Z,85.90
2019-06-07T19:58:17.858Z,86.00
2019-06-07T20:01:22.526Z,86.20
2019-06-07T20:04:26.926Z,86.50
2019-06-07T20:07:31.346Z,86.30
2019-06-07T20:10:35.910Z,86.70
2019-06-07T20:13:40.687Z,86.80
2019-06-07T20:16:45.223Z,86.90
2019-06-07T20:19:49.923Z,87.10
2019-06-07T20:22:54.390Z,87.30
2019-06-07T20:26:00.122Z,87.30
2019-06-07T20:29:05.709Z,87.60
2019-06-07T20:32:10.234Z,87.80
2019-06-07T20:35:14.888Z,88.00
2019-06-07T20:38:19.522Z,88.60
2019-06-07T20:41:24.061Z,88.70
2019-06-07T20:44:28.648Z,89.00
2019-06-07T20:47:33.088Z,89.10
2019-06-07T20:50:37.610Z,89.20
2019-06-07T20:53:42.163Z,89.50
2019-06-07T20:56:46.614Z,89.90
2019-06-07T20:59:50.973Z,90.00
2019-06-07T21:02:56.634Z,90.20
2019-06-07T21:06:01.391Z,90.30
2019-06-07T21:09:07.734Z,90.30
2019-06-07T21:12:12.132Z,90.30
2019-06-07T21:15:16.759Z,90.20
2019-06-07T21:18:21.163Z,90.40
2019-06-07T21:21:25.574Z,90.40
2019-06-07T21:24:29.937Z,90.60
2019-06-07T21:27:34.373Z,90.60
2019-06-07T21:30:38.752Z,90.60
2019-06-07T21:33:43.501Z,90.60
2019-06-07T21:36:47.849Z,90.60
2019-06-07T21:39:52.162Z,90.70
2019-06-07T21:42:56.450Z,90.70
2019-06-07T21:46:05.518Z,90.80
2019-06-07T21:49:08.353Z,90.80
2019-06-07T21:52:12.988Z,90.90
2019-06-07T21:55:17.451Z,90.80
2019-06-07T21:58:22.117Z,90.90
2019-06-07T22:01:30.943Z,91.00
2019-06-07T22:04:35.272Z,91.00
2019-06-07T22:07:39.703Z,91.00
2019-06-07T22:10:44.039Z,91.00
2019-06-07T22:13:48.492Z,91.00
2019-06-07T22:16:52.898Z,91.00
2019-06-07T22:19:57.275Z,91.10
2019-06-07T22:23:01.676Z,91.10
2019-06-07T22:26:07.086Z,91.10
2019-06-07T22:29:12.376Z,91.10
2019-06-07T22:32:16.873Z,91.20
2019-06-07T22:35:21.184Z,91.20
2019-06-07T22:38:25.465Z,91.10
2019-06-07T22:41:30.701Z,91.20
2019-06-07T22:44:35.168Z,91.20
2019-06-07T22:47:39.524Z,91.20
2019-06-07T22:50:43.957Z,91.30
2019-06-07T22:53:48.336Z,91.30
2019-06-07T22:57:03.465Z,91.30
2019-06-07T23:00:10.193Z,91.30
2019-06-07T23:03:14.992Z,91.70
2019-06-07T23:06:19.441Z,91.40
2019-06-07T23:09:23.739Z,91.40
2019-06-07T23:12:28.148Z,91.40
2019-06-07T23:15:32.481Z,91.40
2019-06-07T23:18:37.204Z,91.60
2019-06-07T23:21:41.575Z,91.50
2019-06-07T23:24:45.979Z,91.60
2019-06-07T23:27:50.276Z,91.60
2019-06-07T23:30:54.652Z,91.50
2019-06-07T23:33:58.925Z,91.60
2019-06-07T23:37:03.359Z,91.80
2019-06-07T23:40:08.188Z,91.80
2019-06-07T23:43:13.427Z,91.90
2019-06-07T23:46:17.817Z,92.00
2019-06-07T23:49:22.582Z,91.90
2019-06-07T23:52:27.142Z,92.10
2019-06-07T23:55:31.569Z,92.00
2019-06-07T23:58:35.795Z,92.10
